Lavender Ace — 3FFS3 — position and weather

sailwx.info

Track history (hours):
 
Tides and Currents Weather Stations Pressure Air Temp Water Temp Dewpoint Dewpoint Depression Visibility Wind Speed Wind Dir Waves Ship Positions

Lavender Ace

Last reported at 2018-Jan-21 04:53 UTC. Time now 2018-Jan-22 04:29 UTC.
Position N 36°47' W 075°44'.

Length 200 m; draft 8.4 m.

Type: Cargo ship. MMSI: 353332000.

Date/timePositionNaut miles runAvg speedWind from/ knotsBaromVisibWave heightAir tempDewpointWater temp
2018-Jan-21 04:53N 36°47' W 075°44'4 9.1
2018-Jan-21 04:30N 36°49' W 075°47'5 9.2
2018-Jan-21 04:00N 36°52' W 075°52'5 9.3
2018-Jan-21 03:30N 36°55' W 075°56'5 9.5
2018-Jan-21 03:00N 36°59' W 076°00'6216.1
2018-Jan-20 23:10N 37°60' W 076°12'3917.1
2018-Jan-20 20:54N 38°37' W 076°26'717.3
2018-Jan-20 20:30N 38°44' W 076°26'917.6
2018-Jan-20 20:00N 38°53' W 076°24'816.1
2018-Jan-20 19:30N 39°01' W 076°23'714.5
2018-Jan-20 19:00N 39°08' W 076°24'611.8
2018-Jan-20 18:31N 39°12' W 076°30'3 5.9
2018-Jan-20 17:58N 39°14' W 076°32'0 0.0
2018-Jan-20 17:28N 39°14' W 076°32'0 0.0
2018-Jan-20 16:58N 39°14' W 076°32'0 0.0
2018-Jan-20 16:28N 39°14' W 076°32'0 0.0
2018-Jan-20 15:58N 39°14' W 076°32'0 0.0
2018-Jan-20 15:28N 39°14' W 076°32'0 0.0
2018-Jan-20 14:58N 39°14' W 076°32'0 0.0
2018-Jan-20 14:28N 39°14' W 076°32'0 0.0
2018-Jan-20 13:58N 39°14' W 076°32'0 0.0
2018-Jan-20 13:28N 39°14' W 076°32'0 0.0
2018-Jan-20 12:58N 39°14' W 076°32'0 0.0
2018-Jan-20 12:28N 39°14' W 076°32'0 0.0
2018-Jan-20 11:58N 39°14' W 076°32'0 0.0
2018-Jan-20 11:28N 39°14' W 076°32'0 0.0
2018-Jan-20 10:58N 39°14' W 076°32'0 0.0
2018-Jan-20 10:28N 39°14' W 076°32'0 0.0
2018-Jan-20 09:58N 39°14' W 076°32'0 0.0
2018-Jan-20 09:28N 39°14' W 076°32'0 0.0
2018-Jan-20 08:58N 39°14' W 076°32'0 0.0
2018-Jan-20 08:28N 39°14' W 076°32'0 0.0
2018-Jan-20 07:58N 39°14' W 076°32'0 0.0
2018-Jan-20 07:28N 39°14' W 076°32'0 0.0
2018-Jan-20 06:58N 39°14' W 076°32'0 0.0
2018-Jan-20 06:28N 39°14' W 076°32'0 0.0
2018-Jan-20 05:58N 39°14' W 076°32'0 0.0
2018-Jan-20 05:28N 39°14' W 076°32'0 0.0
2018-Jan-20 04:58N 39°14' W 076°32'0 0.0
2018-Jan-20 04:28N 39°14' W 076°32'0 0.0
2018-Jan-20 03:58N 39°14' W 076°32'0 0.0
2018-Jan-20 03:28N 39°14' W 076°32'0 0.0
2018-Jan-20 02:58N 39°14' W 076°32'0 0.0
2018-Jan-20 02:28N 39°14' W 076°32'0 0.0
2018-Jan-20 01:58N 39°14' W 076°32'0 0.0
2018-Jan-20 01:28N 39°14' W 076°32'0 0.0
2018-Jan-20 00:58N 39°14' W 076°32'0 0.0
2018-Jan-20 00:28N 39°14' W 076°32'0 0.0
2018-Jan-20 00:00N 39°14' W 076°32'0 0.0
2018-Jan-19 23:30N 39°14' W 076°32'1 1.3
2018-Jan-19 23:00N 39°14' W 076°32'3 5.5
2018-Jan-19 22:30N 39°12' W 076°30'713.2
2018-Jan-19 22:00N 39°07' W 076°24'815.3
2018-Jan-19 21:30N 38°60' W 076°23'610.7
2018-Jan-19 20:58N 38°54' W 076°25'0 0.2
2018-Jan-19 20:28N 38°54' W 076°25'0 0.0
2018-Jan-19 19:58N 38°54' W 076°25'0 0.1
2018-Jan-19 19:28N 38°54' W 076°25'0 0.1
2018-Jan-19 18:58N 38°54' W 076°25'0 0.0
2018-Jan-19 18:28N 38°54' W 076°25'0 0.0
2018-Jan-19 17:58N 38°54' W 076°25'0 0.0
2018-Jan-19 17:28N 38°54' W 076°25'0 0.0
2018-Jan-19 16:58N 38°54' W 076°25'0 0.0
2018-Jan-19 16:28N 38°54' W 076°25'0 0.0
2018-Jan-19 15:58N 38°54' W 076°25'0 0.0
2018-Jan-19 15:28N 38°54' W 076°25'0 0.0
2018-Jan-19 14:58N 38°54' W 076°25'0 0.0
2018-Jan-19 14:28N 38°54' W 076°25'0 0.0
2018-Jan-19 13:58N 38°54' W 076°25'0 0.0
2018-Jan-19 13:28N 38°54' W 076°25'0 0.0
2018-Jan-19 12:58N 38°54' W 076°25'0 0.0
2018-Jan-19 12:28N 38°54' W 076°25'0 0.0
2018-Jan-19 11:58N 38°54' W 076°25'0 0.0
2018-Jan-19 11:28N 38°54' W 076°25'0 0.0
2018-Jan-19 10:55N 38°54' W 076°25'0 0.0
2018-Jan-19 10:28N 38°54' W 076°25'0 0.0
2018-Jan-19 09:58N 38°54' W 076°25'0 0.0
2018-Jan-19 09:25N 38°54' W 076°25'0 0.0
2018-Jan-19 08:58N 38°54' W 076°25'0 0.0
2018-Jan-19 08:28N 38°54' W 076°25'0 0.0
2018-Jan-19 07:58N 38°54' W 076°25'0 0.0
2018-Jan-19 07:28N 38°54' W 076°25'0 0.0
2018-Jan-19 06:58N 38°54' W 076°25'0 0.0
2018-Jan-19 06:28N 38°54' W 076°25'0 0.0
2018-Jan-19 05:55N 38°54' W 076°25'0 0.0
2018-Jan-19 05:28N 38°54' W 076°25'0 0.0
2018-Jan-19 04:58N 38°54' W 076°25'0 0.0
2018-Jan-19 04:28N 38°54' W 076°25'0 0.0
2018-Jan-19 03:58N 38°54' W 076°25'0 0.0
2018-Jan-19 03:28N 38°54' W 076°25'0 0.0
2018-Jan-19 02:58N 38°54' W 076°25'0 0.0
2018-Jan-19 02:28N 38°54' W 076°25'0 0.0
2018-Jan-19 01:58N 38°54' W 076°25'0 0.0
2018-Jan-19 01:28N 38°54' W 076°25'0 0.0
2018-Jan-19 00:58N 38°54' W 076°25'0 0.0
2018-Jan-19 00:28N 38°54' W 076°25'0 0.0
2018-Jan-18 23:58N 38°54' W 076°25'0 0.0
2018-Jan-18 23:28N 38°54' W 076°25'0 0.0
2018-Jan-18 22:58N 38°54' W 076°25'0 0.0
2018-Jan-18 22:28N 38°54' W 076°25'0 0.0
2018-Jan-18 21:58N 38°54' W 076°25'0 0.1
2018-Jan-18 21:28N 38°54' W 076°25'0 0.0
2018-Jan-18 20:58N 38°54' W 076°25'0 0.0
2018-Jan-18 20:28N 38°54' W 076°25'0 0.0
2018-Jan-18 19:58N 38°54' W 076°25'0 0.0
2018-Jan-18 19:28N 38°54' W 076°25'0 0.0
2018-Jan-18 18:58N 38°54' W 076°25'0 0.0
2018-Jan-18 18:28N 38°54' W 076°25'0 0.0
2018-Jan-18 17:58N 38°54' W 076°25'0 0.0
2018-Jan-18 17:28N 38°54' W 076°25'0 0.0
2018-Jan-18 16:58N 38°54' W 076°25'0 0.0
2018-Jan-18 16:28N 38°54' W 076°25'0 0.0
2018-Jan-18 15:58N 38°54' W 076°25'0 0.0
2018-Jan-18 15:28N 38°54' W 076°25'0 0.0
2018-Jan-18 14:58N 38°54' W 076°25'0 0.0
2018-Jan-18 14:28N 38°54' W 076°25'0 0.0
2018-Jan-18 13:58N 38°54' W 076°25'0 0.0
2018-Jan-18 13:28N 38°54' W 076°25'0 0.0
2018-Jan-18 12:58N 38°54' W 076°25'0 0.0
2018-Jan-18 12:28N 38°54' W 076°25'0 0.0
2018-Jan-18 11:58N 38°54' W 076°25'0 0.0
2018-Jan-18 11:28N 38°54' W 076°25'0 0.0
2018-Jan-18 10:58N 38°54' W 076°25'0 0.0
2018-Jan-18 10:28N 38°54' W 076°25'0 0.0
2018-Jan-18 09:58N 38°54' W 076°25'0 0.0
2018-Jan-18 09:28N 38°54' W 076°25'0 0.0
2018-Jan-18 08:58N 38°54' W 076°25'0 0.0
2018-Jan-18 08:28N 38°54' W 076°25'0 0.0
2018-Jan-18 07:58N 38°54' W 076°25'0 0.0
2018-Jan-18 07:28N 38°54' W 076°25'0 0.0
2018-Jan-18 06:58N 38°54' W 076°25'0 0.0
2018-Jan-18 06:28N 38°54' W 076°25'0 0.0
2018-Jan-18 05:58N 38°54' W 076°25'0 0.0
2018-Jan-18 05:28N 38°54' W 076°25'0 0.0
2018-Jan-18 04:58N 38°54' W 076°25'0 0.0
2018-Jan-18 04:28N 38°54' W 076°25'0 0.0
2018-Jan-18 03:58N 38°54' W 076°25'0 0.0
2018-Jan-18 03:28N 38°54' W 076°25'0 0.0
2018-Jan-18 02:58N 38°54' W 076°25'0 0.0
2018-Jan-18 02:28N 38°54' W 076°25'0 0.0
2018-Jan-18 01:58N 38°54' W 076°25'0 0.0
2018-Jan-18 01:28N 38°54' W 076°25'0 0.0
2018-Jan-18 00:58N 38°54' W 076°25'0 0.0
2018-Jan-17 23:58N 38°54' W 076°25'0 0.2
2018-Jan-17 23:55N 38°54' W 076°25'  
Track history (hours):
 
Tides and Currents Weather Stations Pressure Air Temp Water Temp Dewpoint Dewpoint Depression Visibility Wind Speed Wind Dir Waves Ship Positions

Lavender Ace

Last reported at 2018-Jan-21 04:53 UTC. Time now 2018-Jan-22 04:29 UTC.
Position N 36°47' W 075°44'.

Length 200 m; draft 8.4 m.

Type: Cargo ship. MMSI: 353332000.

Date/timePositionNaut miles runAvg speedWind from/ knotsBaromVisibWave heightAir tempDewpointWater temp
2018-Jan-21 04:53N 36°47' W 075°44'4 9.1
2018-Jan-21 04:30N 36°49' W 075°47'5 9.2
2018-Jan-21 04:00N 36°52' W 075°52'5 9.3
2018-Jan-21 03:30N 36°55' W 075°56'5 9.5
2018-Jan-21 03:00N 36°59' W 076°00'6216.1
2018-Jan-20 23:10N 37°60' W 076°12'3917.1
2018-Jan-20 20:54N 38°37' W 076°26'717.3
2018-Jan-20 20:30N 38°44' W 076°26'917.6
2018-Jan-20 20:00N 38°53' W 076°24'816.1
2018-Jan-20 19:30N 39°01' W 076°23'714.5
2018-Jan-20 19:00N 39°08' W 076°24'611.8
2018-Jan-20 18:31N 39°12' W 076°30'3 5.9
2018-Jan-20 17:58N 39°14' W 076°32'0 0.0
2018-Jan-20 17:28N 39°14' W 076°32'0 0.0
2018-Jan-20 16:58N 39°14' W 076°32'0 0.0
2018-Jan-20 16:28N 39°14' W 076°32'0 0.0
2018-Jan-20 15:58N 39°14' W 076°32'0 0.0
2018-Jan-20 15:28N 39°14' W 076°32'0 0.0
2018-Jan-20 14:58N 39°14' W 076°32'0 0.0
2018-Jan-20 14:28N 39°14' W 076°32'0 0.0
2018-Jan-20 13:58N 39°14' W 076°32'0 0.0
2018-Jan-20 13:28N 39°14' W 076°32'0 0.0
2018-Jan-20 12:58N 39°14' W 076°32'0 0.0
2018-Jan-20 12:28N 39°14' W 076°32'0 0.0
2018-Jan-20 11:58N 39°14' W 076°32'0 0.0
2018-Jan-20 11:28N 39°14' W 076°32'0 0.0
2018-Jan-20 10:58N 39°14' W 076°32'0 0.0
2018-Jan-20 10:28N 39°14' W 076°32'0 0.0
2018-Jan-20 09:58N 39°14' W 076°32'0 0.0
2018-Jan-20 09:28N 39°14' W 076°32'0 0.0
2018-Jan-20 08:58N 39°14' W 076°32'0 0.0
2018-Jan-20 08:28N 39°14' W 076°32'0 0.0
2018-Jan-20 07:58N 39°14' W 076°32'0 0.0
2018-Jan-20 07:28N 39°14' W 076°32'0 0.0
2018-Jan-20 06:58N 39°14' W 076°32'0 0.0
2018-Jan-20 06:28N 39°14' W 076°32'0 0.0
2018-Jan-20 05:58N 39°14' W 076°32'0 0.0
2018-Jan-20 05:28N 39°14' W 076°32'0 0.0
2018-Jan-20 04:58N 39°14' W 076°32'0 0.0
2018-Jan-20 04:28N 39°14' W 076°32'0 0.0
2018-Jan-20 03:58N 39°14' W 076°32'0 0.0
2018-Jan-20 03:28N 39°14' W 076°32'0 0.0
2018-Jan-20 02:58N 39°14' W 076°32'0 0.0
2018-Jan-20 02:28N 39°14' W 076°32'0 0.0
2018-Jan-20 01:58N 39°14' W 076°32'0 0.0
2018-Jan-20 01:28N 39°14' W 076°32'0 0.0
2018-Jan-20 00:58N 39°14' W 076°32'0 0.0
2018-Jan-20 00:28N 39°14' W 076°32'0 0.0
2018-Jan-20 00:00N 39°14' W 076°32'0 0.0
2018-Jan-19 23:30N 39°14' W 076°32'1 1.3
2018-Jan-19 23:00N 39°14' W 076°32'3 5.5
2018-Jan-19 22:30N 39°12' W 076°30'713.2
2018-Jan-19 22:00N 39°07' W 076°24'815.3
2018-Jan-19 21:30N 38°60' W 076°23'610.7
2018-Jan-19 20:58N 38°54' W 076°25'0 0.2
2018-Jan-19 20:28N 38°54' W 076°25'0 0.0
2018-Jan-19 19:58N 38°54' W 076°25'0 0.1
2018-Jan-19 19:28N 38°54' W 076°25'0 0.1
2018-Jan-19 18:58N 38°54' W 076°25'0 0.0
2018-Jan-19 18:28N 38°54' W 076°25'0 0.0
2018-Jan-19 17:58N 38°54' W 076°25'0 0.0
2018-Jan-19 17:28N 38°54' W 076°25'0 0.0
2018-Jan-19 16:58N 38°54' W 076°25'0 0.0
2018-Jan-19 16:28N 38°54' W 076°25'0 0.0
2018-Jan-19 15:58N 38°54' W 076°25'0 0.0
2018-Jan-19 15:28N 38°54' W 076°25'0 0.0
2018-Jan-19 14:58N 38°54' W 076°25'0 0.0
2018-Jan-19 14:28N 38°54' W 076°25'0 0.0
2018-Jan-19 13:58N 38°54' W 076°25'0 0.0
2018-Jan-19 13:28N 38°54' W 076°25'0 0.0
2018-Jan-19 12:58N 38°54' W 076°25'0 0.0
2018-Jan-19 12:28N 38°54' W 076°25'0 0.0
2018-Jan-19 11:58N 38°54' W 076°25'0 0.0
2018-Jan-19 11:28N 38°54' W 076°25'0 0.0
2018-Jan-19 10:55N 38°54' W 076°25'0 0.0
2018-Jan-19 10:28N 38°54' W 076°25'0 0.0
2018-Jan-19 09:58N 38°54' W 076°25'0 0.0
2018-Jan-19 09:25N 38°54' W 076°25'0 0.0
2018-Jan-19 08:58N 38°54' W 076°25'0 0.0
2018-Jan-19 08:28N 38°54' W 076°25'0 0.0
2018-Jan-19 07:58N 38°54' W 076°25'0 0.0
2018-Jan-19 07:28N 38°54' W 076°25'0 0.0
2018-Jan-19 06:58N 38°54' W 076°25'0 0.0
2018-Jan-19 06:28N 38°54' W 076°25'0 0.0
2018-Jan-19 05:55N 38°54' W 076°25'0 0.0
2018-Jan-19 05:28N 38°54' W 076°25'0 0.0
2018-Jan-19 04:58N 38°54' W 076°25'0 0.0
2018-Jan-19 04:28N 38°54' W 076°25'0 0.0
2018-Jan-19 03:58N 38°54' W 076°25'0 0.0
2018-Jan-19 03:28N 38°54' W 076°25'0 0.0
2018-Jan-19 02:58N 38°54' W 076°25'0 0.0
2018-Jan-19 02:28N 38°54' W 076°25'0 0.0
2018-Jan-19 01:58N 38°54' W 076°25'0 0.0
2018-Jan-19 01:28N 38°54' W 076°25'0 0.0
2018-Jan-19 00:58N 38°54' W 076°25'0 0.0
2018-Jan-19 00:28N 38°54' W 076°25'0 0.0
2018-Jan-18 23:58N 38°54' W 076°25'0 0.0
2018-Jan-18 23:28N 38°54' W 076°25'0 0.0
2018-Jan-18 22:58N 38°54' W 076°25'0 0.0
2018-Jan-18 22:28N 38°54' W 076°25'0 0.0
2018-Jan-18 21:58N 38°54' W 076°25'0 0.1
2018-Jan-18 21:28N 38°54' W 076°25'0 0.0
2018-Jan-18 20:58N 38°54' W 076°25'0 0.0
2018-Jan-18 20:28N 38°54' W 076°25'0 0.0
2018-Jan-18 19:58N 38°54' W 076°25'0 0.0
2018-Jan-18 19:28N 38°54' W 076°25'0 0.0
2018-Jan-18 18:58N 38°54' W 076°25'0 0.0
2018-Jan-18 18:28N 38°54' W 076°25'0 0.0
2018-Jan-18 17:58N 38°54' W 076°25'0 0.0
2018-Jan-18 17:28N 38°54' W 076°25'0 0.0
2018-Jan-18 16:58N 38°54' W 076°25'0 0.0
2018-Jan-18 16:28N 38°54' W 076°25'0 0.0
2018-Jan-18 15:58N 38°54' W 076°25'0 0.0
2018-Jan-18 15:28N 38°54' W 076°25'0 0.0
2018-Jan-18 14:58N 38°54' W 076°25'0 0.0
2018-Jan-18 14:28N 38°54' W 076°25'0 0.0
2018-Jan-18 13:58N 38°54' W 076°25'0 0.0
2018-Jan-18 13:28N 38°54' W 076°25'0 0.0
2018-Jan-18 12:58N 38°54' W 076°25'0 0.0
2018-Jan-18 12:28N 38°54' W 076°25'0 0.0
2018-Jan-18 11:58N 38°54' W 076°25'0 0.0
2018-Jan-18 11:28N 38°54' W 076°25'0 0.0
2018-Jan-18 10:58N 38°54' W 076°25'0 0.0
2018-Jan-18 10:28N 38°54' W 076°25'0 0.0
2018-Jan-18 09:58N 38°54' W 076°25'0 0.0
2018-Jan-18 09:28N 38°54' W 076°25'0 0.0
2018-Jan-18 08:58N 38°54' W 076°25'0 0.0
2018-Jan-18 08:28N 38°54' W 076°25'0 0.0
2018-Jan-18 07:58N 38°54' W 076°25'0 0.0
2018-Jan-18 07:28N 38°54' W 076°25'0 0.0
2018-Jan-18 06:58N 38°54' W 076°25'0 0.0
2018-Jan-18 06:28N 38°54' W 076°25'0 0.0
2018-Jan-18 05:58N 38°54' W 076°25'0 0.0
2018-Jan-18 05:28N 38°54' W 076°25'0 0.0
2018-Jan-18 04:58N 38°54' W 076°25'0 0.0
2018-Jan-18 04:28N 38°54' W 076°25'0 0.0
2018-Jan-18 03:58N 38°54' W 076°25'0 0.0
2018-Jan-18 03:28N 38°54' W 076°25'0 0.0
2018-Jan-18 02:58N 38°54' W 076°25'0 0.0
2018-Jan-18 02:28N 38°54' W 076°25'0 0.0
2018-Jan-18 01:58N 38°54' W 076°25'0 0.0
2018-Jan-18 01:28N 38°54' W 076°25'0 0.0
2018-Jan-18 00:58N 38°54' W 076°25'0 0.0
2018-Jan-17 23:58N 38°54' W 076°25'0 0.2
2018-Jan-17 23:55N 38°54' W 076°25'  

Dump ship's entire track history